Portada
METAR-TAF:

METAR-TAF

Aeroports :

Brackett Field Airport

La Verne, Califòrnia, Estats Units d'Amèrica

latitud: 34-06N, longitud: 117-47W, altitud: 308 m

Observació

L'informe es va fer fa 9 hores i 19 minuts, a les 22:47 UTC
Vent 8 kt del Oest/Sud-Oest
Temperatura 37°C
Humitat 25%
Pressió 1010 hPa
Visibilitat: 16.1 km
Cel clar

METAR: KPOC 222247Z 24008KT 10SM CLR 37/14 A2983

Hora: 01:06 (08:06 UTC)


TAF: manca

Observacions i pronòstics meteorològics de més de 4000 aeroports (METAR i TAF).

Les estacions disponibles són els punts grocs i vermells al mapa.

Posi el ratolí al punt desitjat per veure el nom de l'estació.

Feu clic per veure les observacions i els pronòstics meteorològics.

Per canviar el mapa: feu clic els botons verds amb una creu de color negre per apropar; al botó verd amb un guió per allunyar la imatge; o en les fletxes verdes per a mapes adjacents.


METAR-TAF: